Saint Louis, MO

11:32 AM CDT on July 28, 2016 (GMT -0500)
East Madison, Kirkwood, MO | | Change Station

Elev 653 ft 38.58 °N, 90.39 °W | Updated 10 seconds ago

Partly Cloudy
Partly Cloudy
86.4 °F
Feels Like 96 °F
N
0.9
Wind Variable Wind from West
Gusts 2.0 mph

Today
High -- | Low -- °F
--% Chance of Precip.
Yesterday
High -- | Low -- °F
Precip. -- in
Pressure 29.87 in
Visibility 10.0 miles
Clouds Few 4300 ft
Few 14000 ft
Few 25000 ft
Heat Index 96 °F
Dew Point 75 °F
Humidity 70%
Rainfall 0.00 in
Snow Depth Not available.
6:00 AM 8:15 PM
Waning Crescent, 31% visible
METAR KSTL 281551Z 29008KT 10SM FEW043 FEW140 FEW250 31/23 A2991 RMK AO2 SLP114 T03060228
Pressure 29.87 in
Visibility 10.0 miles
Clouds Few 4300 ft
Few 14000 ft
Few 25000 ft
Heat Index 96 °F
Dew Point 75 °F
Humidity 70%
Rainfall 0.00 in
Snow Depth Not available.
6:00 AM 8:15 PM
Waning Crescent, 31% visible
METAR KSTL 281551Z 29008KT 10SM FEW043 FEW140 FEW250 31/23 A2991 RMK AO2 SLP114 T03060228

10-Day Weather Forecast

Almanac

Astronomy

Jul. 28, 2016 Rise Set
Actual Time
Civil Twilight
Nautical Twilight
Astronomical Twilight
Moon
Length of Visible Light
Length of Day
Tomorrow will be .
, % of the Moon is Illuminated

Today's Extremes

State Highs State Lows

Community

WunderPhotos

Upload Photos

1,928,147 photos uploaded!

WunderBlog® & News

Nearby

Air Quality

  Air Quality AQ Index Pollutant
Not available.

Snow Depth

Station Depth Elevation

Earthquake Activity

City Distance Mag. Time & Date
Minimum magnitude displayed is 2.5.

Coastal Water Temperatures

Place Temperature

Stations

Nearby Weather Stations

Station Location Temp. Windchill Dew Point Humidity Wind Precip. Elev Updated Type
                   

Watches & Warnings

There are currently no watches in effect.